»·PEaware :: DAL319 KPSP-KSBA

DAL319 :: KPSP-KSBA

FLIGHT INFORMATION

Flight Status: Arrived
Operator:
Delta Air Lines
More flights by this operator :: More flights under this callsign
Pilot: Erik K. (18332)
Aircraft: BOEING 727-200
(B722)
More flights by this aircraft type
Origin: KPSP Palm Springs Intl
United States
Destination: KSBA Santa Barbara Mun
United States
More flights between these airports :: More routes between these airports
Route: PSP V386 FIM KWANG
File this flight plan on PilotEdge
Remarks:
Altitude:
(Current/Filed)
24,000ft
Speed:
(Current/Filed)
320kts
Departed: 28-Apr-19 08:33 PM
Arrived: 28-Apr-19 09:13 PM
Distance/Time
Traveled:
169nm/0:40
Distance/Time
To Go:
Arrived

Flight Plot

Page will automatically refresh every two minutes.


Map Options




Map Legend


Flown Route
Filed Route
Departure Airport
Arrival Airport
Navaid (VOR, NDB)
Fix

Horizontal Profiles

Position Reports

Time Latitude Longitude Heading Altitude Ground
Speed
28-Apr-19 20:16 33.824012 -116.506889 0 434ft 0kts
28-Apr-19 20:17 33.824012 -116.506889 0 434ft 0kts
28-Apr-19 20:18 33.824012 -116.506889 0 434ft 0kts
28-Apr-19 20:19 33.824012 -116.506889 0 434ft 0kts
28-Apr-19 20:20 33.824012 -116.506889 0 434ft 0kts
28-Apr-19 20:21 33.824012 -116.506889 0 434ft 0kts
28-Apr-19 20:22 33.824012 -116.506889 0 434ft 0kts
28-Apr-19 20:23 33.823176 -116.504090 120 434ft 22kts
28-Apr-19 20:24 33.818335 -116.499477 104 434ft 0kts
28-Apr-19 20:25 33.818335 -116.499477 104 434ft 0kts
28-Apr-19 20:26 33.818335 -116.499477 104 434ft 0kts
28-Apr-19 20:27 33.818335 -116.499477 104 434ft 0kts
28-Apr-19 20:28 33.818335 -116.499477 104 434ft 0kts
28-Apr-19 20:29 33.818335 -116.499475 104 434ft 0kts
28-Apr-19 20:30 33.818364 -116.499270 72 434ft 0kts
28-Apr-19 20:31 33.818381 -116.499199 73 434ft 3kts
28-Apr-19 20:32 33.827943 -116.506164 322 440ft 150kts
28-Apr-19 20:33 33.869013 -116.542483 321 2358ft 202kts
28-Apr-19 20:34 33.916843 -116.562323 43 4177ft 217kts
28-Apr-19 20:35 33.888580 -116.512198 157 7129ft 202kts
28-Apr-19 20:36 33.867205 -116.454721 95 9868ft 214kts
28-Apr-19 20:37 33.908087 -116.399015 349 12390ft 272kts
28-Apr-19 20:38 33.970592 -116.468810 306 13116ft 382kts
28-Apr-19 20:39 34.039748 -116.568698 314 18133ft 362kts
28-Apr-19 20:40 34.145042 -116.580342 8 20504ft 411kts
28-Apr-19 20:41 34.260125 -116.590107 342 22986ft 421kts
28-Apr-19 20:42 34.373728 -116.629675 338 24066ft 427kts
28-Apr-19 20:43 34.481877 -116.689296 304 24140ft 421kts
28-Apr-19 20:44 34.501962 -116.819976 262 24129ft 404kts
28-Apr-19 20:45 34.514250 -116.959707 272 24141ft 424kts
28-Apr-19 20:46 34.538948 -117.103291 275 24180ft 438kts
28-Apr-19 20:47 34.557771 -117.251772 271 24191ft 449kts
28-Apr-19 20:48 34.572706 -117.405223 271 24191ft 460kts
28-Apr-19 20:49 34.587198 -117.562675 271 24190ft 470kts
28-Apr-19 20:50 34.601313 -117.723295 270 24175ft 477kts
28-Apr-19 20:51 34.615600 -117.885594 271 24153ft 483kts
28-Apr-19 20:52 34.625858 -118.049546 256 24146ft 474kts
28-Apr-19 20:53 34.585926 -118.199775 241 24168ft 464kts
28-Apr-19 20:55 34.536753 -118.346944 243 24179ft 468kts
28-Apr-19 20:56 34.490659 -118.484642 243 22041ft 425kts
28-Apr-19 20:57 34.448201 -118.612007 245 18103ft 392kts
28-Apr-19 20:58 34.408236 -118.725805 243 13950ft 346kts
28-Apr-19 20:59 34.373741 -118.829900 245 9177ft 313kts
28-Apr-19 21:00 34.347444 -118.913906 264 9096ft 230kts
28-Apr-19 21:01 34.349627 -118.980196 268 9080ft 213kts
28-Apr-19 21:02 34.344032 -119.055609 260 9111ft 235kts
28-Apr-19 21:03 34.337735 -119.140245 260 9101ft 266kts
28-Apr-19 21:04 34.330766 -119.234339 261 9039ft 285kts
28-Apr-19 21:05 34.323307 -119.332705 261 8755ft 302kts
28-Apr-19 21:06 34.315089 -119.440150 262 7893ft 333kts
28-Apr-19 21:07 34.316661 -119.537508 287 6841ft 253kts
28-Apr-19 21:08 34.327156 -119.614511 306 6012ft 235kts
28-Apr-19 21:09 34.361804 -119.677386 305 3898ft 207kts
28-Apr-19 21:10 34.393025 -119.731604 305 1266ft 196kts
28-Apr-19 21:11 34.423274 -119.772360 300 848ft 146kts
28-Apr-19 21:12 34.428175 -119.818665 267 445ft 143kts
28-Apr-19 21:13 34.427629 -119.850360 266 24ft 37kts
28-Apr-19 21:13 34.426636 -119.851549 128 24ft 0kts
28-Apr-19 21:15 34.426636 -119.851549 128 24ft 0kts
28-Apr-19 21:16 34.426472 -119.850701 93 24ft 22kts
28-Apr-19 21:16 34.426627 -119.841762 89 24ft 13kts
28-Apr-19 21:17 34.425073 -119.837676 147 24ft 14kts

Navigation Log

Ident Type
Flight plan parsing failed, navigation log unavailable